KDHN/DHN METAR and TAF weather

Enter ICAO airport designator
Station Type Date Time Source
KDHN METAR 2020/08/10 17:53 UTC NOAA

KDHN 101753Z 00000KT 10SM BKN049 BKN065 33/22 A3012 RMK AO2 LTG DSNT N AND NE SLP192 T03330217 10344 20256 58014


Station Type Date Time Source
KDHN Decoded METAR 2020/08/10 17:53 UTC NOAA

DOTHAN AIRPORT, AL, United States (KDHN) 31-19N 085-27W 113M
Aug 10, 2020 - 01:53 PM EDT / 2020.08.10 1753 UTC
Wind: Calm:0
Visibility: 10 mile(s):0
Sky conditions: mostly cloudy
Weather: Lightning observed
Temperature: 91.9 F (33.3 C)
Heat index: 98.4 F (36.9 C):1
Dew Point: 71.1 F (21.7 C)
Relative Humidity: 50%
Pressure (altimeter): 30.12 in. Hg (1019 hPa)
Pressure tendency: 0.04 inches (1.4 hPa) lower than three hours ago
ob: KDHN 101753Z 00000KT 10SM BKN049 BKN065 33/22 A3012 RMK AO2 LTG DSNT N AND NE SLP192 T03330217 10344 20256 58014
cycle: 18

Station Type Date Time Source
KDHN TAF 2020/08/10 18:42 UTC NOAA

TAF KDHN 101740Z 1018/1118 29005KT P6SM SHRA VCTS SCT050CB
TEMPO 1018/1022 29010G20KT 2SM TSRA SCT030CB BKN050
FM110000 VRB04KT P6SM VCSH BKN060
FM110900 31004KT P6SM SHRA VCTS SCT045CB PROB30 1112/1118 4SM TSRA BKN050CB

Example: see airport list